Forside
METAR-TAF:

METAR-TAF

Lufthavne :

Mackay, Australien

Breddekreds: 21-10-18S, længdekreds: 149-10-47E, højde: 6 m

Aktuelle vejr

Denne rapport blev lavet for 58 minutter siden, kl. 23:00 UTC
Vind 8 kt fra øst, varierende mellem østnordøst og sydøst
Temperatur 27°C
Fugtighed 66%
Tryk 1017 hPa
Sigt 10 km eller mere

METAR: YBMK 192300Z AUTO 10008KT 070V130 9999 // NCD 27/20 Q1017

Tid: 09:58 (23:58 UTC)


TAF: fraværende

Vejrobservationer og prognoser fra mere end 4000 lufthavne (METAR og TAF).

De gule og røde prikker repræsenterer de meteorologiske stationer.

Flyt musen over at se navnet på stationen.

Så klik over at se vejr observationer og prognoser.

At skifte det kort: Klik på de grønne knapper med et sort kors for at zoome ind; på den grønne knap med en bindestreg for at zoome ud; eller på de grønne pile for tilstødende kort.


METAR-TAF: